Time;durP1;ratioP1;P1;durP2;ratioP2;P2;SDS_P1;SDS_P2;PMS_P1;PMS_P2;Temp;Humidity;BMP_temperature;BMP_pressure;BME280_temperature;BME280_humidity;BME280_pressure;Samples;Min_cycle;Max_cycle;Signal;HPM_P1;HPM_P2
2023/10/07 00:00:17;;;;;;;18.37;9.30;;;10.60;1.00;;;;;;5029828;28;20466;-77
2023/10/07 00:02:42;;;;;;;18.80;8.90;;;10.60;1.00;;;;;;5030837;28;20190;-75
2023/10/07 00:05:14;;;;;;;19.60;8.93;;;10.60;1.00;;;;;;5027966;28;20520;-77
2023/10/07 00:07:43;;;;;;;16.63;8.90;;;10.60;1.00;;;;;;5042719;28;20178;-76
2023/10/07 00:10:14;;;;;;;19.17;9.23;;;10.60;1.00;;;;;;5027359;28;20428;-75
2023/10/07 00:12:40;;;;;;;16.80;8.23;;;10.60;1.00;;;;;;5030872;28;20460;-74
2023/10/07 00:15:11;;;;;;;16.93;8.80;;;10.70;1.00;;;;;;5020590;28;21026;-75
2023/10/07 00:17:42;;;;;;;20.40;9.40;;;10.60;1.00;;;;;;5025843;28;20427;-73
2023/10/07 00:20:12;;;;;;;17.43;8.40;;;10.60;1.00;;;;;;5022896;28;21005;-75
2023/10/07 00:22:40;;;;;;;17.80;8.40;;;10.60;1.00;;;;;;5028750;28;20459;-76
2023/10/07 00:25:15;;;;;;;19.73;9.00;;;10.60;1.00;;;;;;5028240;28;20421;-75
2023/10/07 00:27:41;;;;;;;15.83;8.17;;;12.70;1.00;;;;;;5025515;28;20446;-76
2023/10/07 00:30:13;;;;;;;19.20;9.40;;;10.60;1.00;;;;;;5022771;28;20437;-75
2023/10/07 00:32:39;;;;;;;21.13;8.90;;;10.60;1.00;;;;;;5024956;28;20275;-76
2023/10/07 00:35:06;;;;;;;16.70;8.70;;;10.70;1.00;;;;;;5029051;28;20972;-75
2023/10/07 00:37:37;;;;;;;18.30;8.77;;;10.70;1.00;;;;;;5029576;28;20493;-74
2023/10/07 00:42:50;;;;;;;18.97;8.40;;;10.70;1.00;;;;;;5027538;28;20865;-74
2023/10/07 00:45:16;;;;;;;20.33;8.83;;;10.60;1.00;;;;;;5026795;28;20435;-74
2023/10/07 00:47:49;;;;;;;15.27;8.70;;;10.70;1.00;;;;;;5028878;28;20788;-73
2023/10/07 00:50:15;;;;;;;19.23;8.17;;;10.70;1.00;;;;;;5025389;28;20178;-76
2023/10/07 00:52:55;;;;;;;17.07;8.30;;;10.70;1.00;;;;;;5028721;28;20460;-75
2023/10/07 00:55:34;;;;;;;20.53;8.57;;;10.60;1.00;;;;;;5021369;28;20448;-76
2023/10/07 01:00:49;;;;;;;20.63;9.00;;;10.50;1.00;;;;;;5021588;28;21004;-75
2023/10/07 01:08:35;;;;;;;21.33;9.13;;;10.50;1.00;;;;;;5025331;28;20500;-77
2023/10/07 01:11:07;;;;;;;16.70;8.00;;;10.50;1.00;;;;;;5036408;28;20428;-76
2023/10/07 01:13:35;;;;;;;19.07;9.00;;;10.50;1.00;;;;;;5015032;28;20445;-76
2023/10/07 01:16:06;;;;;;;16.33;8.47;;;10.50;1.00;;;;;;5029583;28;20425;-75
2023/10/07 01:18:38;;;;;;;16.93;8.40;;;10.40;1.00;;;;;;5026731;28;20471;-77
2023/10/07 01:21:07;;;;;;;18.17;9.00;;;10.40;1.00;;;;;;5030955;28;20432;-76
2023/10/07 01:23:33;;;;;;;16.57;8.70;;;10.40;1.00;;;;;;5027394;28;20982;-75
2023/10/07 01:25:59;;;;;;;16.13;8.47;;;10.40;1.00;;;;;;5025898;28;20494;-75
2023/10/07 01:28:26;;;;;;;15.07;8.17;;;10.40;1.00;;;;;;5029605;28;20440;-75
2023/10/07 01:31:07;;;;;;;19.07;9.07;;;10.40;1.00;;;;;;5031587;28;20809;-76
2023/10/07 01:33:47;;;;;;;19.40;8.33;;;10.20;1.00;;;;;;5027502;28;20538;-74
2023/10/07 01:38:52;;;;;;;16.13;8.60;;;10.20;1.00;;;;;;5032924;28;20587;-74
2023/10/07 01:41:20;;;;;;;19.77;9.37;;;10.30;1.00;;;;;;5029547;28;20482;-75
2023/10/07 01:43:59;;;;;;;17.80;8.17;;;10.20;1.00;;;;;;5030116;28;20428;-77
2023/10/07 01:46:29;;;;;;;16.10;8.37;;;10.20;1.00;;;;;;5027216;28;20938;-75
2023/10/07 01:49:06;;;;;;;20.60;8.97;;;10.20;1.00;;;;;;5032704;28;20558;-75
2023/10/07 01:51:32;;;;;;;15.83;8.40;;;10.20;1.00;;;;;;5031075;28;20428;-74
2023/10/07 01:54:03;;;;;;;21.10;9.13;;;10.20;1.00;;;;;;5030916;28;20436;-75
2023/10/07 01:56:29;;;;;;;16.90;8.67;;;10.20;1.00;;;;;;5030664;28;20621;-77
2023/10/07 01:59:04;;;;;;;16.60;9.00;;;10.20;1.00;;;;;;5029389;28;21034;-75
2023/10/07 02:01:29;;;;;;;19.40;8.73;;;10.00;1.00;;;;;;5031127;28;20961;-75
2023/10/07 02:03:59;;;;;;;16.73;8.37;;;10.00;1.00;;;;;;5031643;28;20440;-75
2023/10/07 02:06:26;;;;;;;17.50;9.13;;;10.00;1.00;;;;;;5013355;28;20167;-75
2023/10/07 02:08:54;;;;;;;22.43;8.73;;;10.00;1.00;;;;;;5028046;28;20957;-74
2023/10/07 02:11:28;;;;;;;15.63;8.97;;;10.00;1.00;;;;;;5021083;28;20544;-75
2023/10/07 02:13:55;;;;;;;21.10;9.03;;;10.00;1.00;;;;;;5014130;28;20446;-76
2023/10/07 02:16:21;;;;;;;18.60;7.90;;;9.90;1.00;;;;;;5028766;28;20461;-75
2023/10/07 02:18:47;;;;;;;16.87;8.30;;;9.90;1.00;;;;;;5020731;28;20493;-75
2023/10/07 02:21:16;;;;;;;18.67;8.80;;;9.80;1.00;;;;;;5029745;28;20643;-76
2023/10/07 02:23:45;;;;;;;19.33;9.30;;;9.80;1.00;;;;;;5026220;28;20895;-75
2023/10/07 02:26:18;;;;;;;16.23;8.90;;;9.80;1.00;;;;;;5030987;28;20493;-75
2023/10/07 02:28:52;;;;;;;17.67;8.87;;;9.80;1.00;;;;;;5030615;28;20439;-74
2023/10/07 02:31:20;;;;;;;20.03;9.53;;;9.80;1.00;;;;;;5028705;28;20420;-75
2023/10/07 02:33:53;;;;;;;16.00;8.33;;;9.70;1.00;;;;;;5031158;28;21035;-75
2023/10/07 02:36:28;;;;;;;17.27;8.63;;;9.70;1.00;;;;;;5031716;28;20806;-75
2023/10/07 02:39:00;;;;;;;18.87;8.87;;;9.70;1.00;;;;;;5032074;28;20970;-77
2023/10/07 02:41:26;;;;;;;21.93;8.90;;;9.80;1.00;;;;;;5032724;28;20519;-75
2023/10/07 02:43:52;;;;;;;14.53;7.70;;;9.70;1.00;;;;;;5031713;28;20588;-75
2023/10/07 02:49:14;;;;;;;17.00;8.50;;;9.80;1.00;;;;;;5021991;28;20204;-77
2023/10/07 02:51:55;;;;;;;17.03;8.87;;;9.70;1.00;;;;;;5019632;28;20427;-75
2023/10/07 02:54:22;;;;;;;16.17;8.93;;;9.70;1.00;;;;;;5028828;28;20447;-75
2023/10/07 02:57:01;;;;;;;16.83;7.90;;;9.60;1.00;;;;;;5026309;28;20423;-75
2023/10/07 02:59:30;;;;;;;20.33;9.90;;;9.50;1.00;;;;;;5037299;28;20510;-75
2023/10/07 03:07:35;;;;;;;21.30;10.03;;;9.50;1.00;;;;;;5027833;28;20972;-78
2023/10/07 03:10:16;;;;;;;18.83;9.40;;;9.60;1.00;;;;;;5024206;28;20426;-72
2023/10/07 03:12:48;;;;;;;17.20;7.80;;;9.60;1.00;;;;;;5030088;28;20217;-74
2023/10/07 03:15:29;;;;;;;18.63;8.23;;;9.60;1.00;;;;;;5027615;28;20429;-74
2023/10/07 03:17:55;;;;;;;21.10;9.03;;;9.60;1.00;;;;;;5029956;28;20968;-75
2023/10/07 03:28:18;;;;;;;19.70;9.27;;;9.40;1.00;;;;;;5028650;28;20439;-75
2023/10/07 03:30:51;;;;;;;16.70;9.10;;;9.50;1.00;;;;;;5022245;28;20502;-75
2023/10/07 03:33:42;;;;;;;23.27;9.90;;;9.60;1.00;;;;;;5023995;28;20474;-75
2023/10/07 03:36:16;;;;;;;16.63;9.00;;;9.60;1.00;;;;;;5022307;28;20421;-75
2023/10/07 03:38:42;;;;;;;21.70;10.47;;;9.70;1.00;;;;;;5028835;28;20432;-74
2023/10/07 03:41:09;;;;;;;15.30;8.50;;;9.70;1.00;;;;;;5027339;28;20941;-76
2023/10/07 03:43:35;;;;;;;17.60;9.10;;;9.60;1.00;;;;;;5030582;28;20444;-73
2023/10/07 03:46:01;;;;;;;15.03;8.53;;;9.60;1.00;;;;;;5023996;28;20444;-74
2023/10/07 03:48:33;;;;;;;18.20;9.30;;;9.60;1.00;;;;;;5028949;28;20460;-76
2023/10/07 03:51:05;;;;;;;19.30;10.30;;;9.60;1.00;;;;;;5030081;28;20177;-74
2023/10/07 03:53:47;;;;;;;17.53;8.77;;;9.60;1.00;;;;;;5025019;28;20449;-75
2023/10/07 03:56:14;;;;;;;19.23;9.27;;;9.50;1.00;;;;;;5018123;28;20425;-75
2023/10/07 03:58:43;;;;;;;22.70;9.97;;;9.60;1.00;;;;;;5026773;28;20432;-75
2023/10/07 04:01:16;;;;;;;16.03;8.70;;;9.70;1.00;;;;;;5023318;28;20508;-76
2023/10/07 04:03:52;;;;;;;20.10;9.33;;;9.70;1.00;;;;;;5021745;28;20471;-75
2023/10/07 04:06:19;;;;;;;18.57;9.10;;;9.80;1.00;;;;;;5024954;28;20432;-75
2023/10/07 04:08:52;;;;;;;18.03;9.17;;;9.80;1.00;;;;;;5031007;28;20531;-76
2023/10/07 04:11:19;;;;;;;22.30;9.10;;;9.90;1.00;;;;;;5028727;28;20815;-74
2023/10/07 04:13:45;;;;;;;15.53;8.63;;;9.90;1.00;;;;;;5028325;28;20447;-75
2023/10/07 04:16:33;;;;;;;15.13;8.20;;;9.90;1.00;;;;;;5028582;28;20443;-75
2023/10/07 04:19:30;;;;;;;20.27;9.00;;;9.80;1.00;;;;;;5029185;28;20558;-75
2023/10/07 04:21:55;;;;;;;21.77;9.03;;;9.70;1.00;;;;;;5028165;28;21005;-75
2023/10/07 04:24:23;;;;;;;14.93;8.37;;;9.60;1.00;;;;;;5029226;28;20893;-73
2023/10/07 04:26:54;;;;;;;19.70;8.47;;;9.70;1.00;;;;;;5025502;28;20810;-76
2023/10/07 04:29:21;;;;;;;18.17;8.80;;;9.70;1.00;;;;;;5028871;28;20939;-74
2023/10/07 04:31:54;;;;;;;18.03;8.60;;;9.70;1.00;;;;;;5030962;28;20668;-75
2023/10/07 04:34:24;;;;;;;16.80;9.20;;;9.60;1.00;;;;;;5036421;28;20770;-75
2023/10/07 04:39:31;;;;;;;16.17;8.50;;;9.50;1.00;;;;;;5027866;28;20799;-75
2023/10/07 04:41:58;;;;;;;19.23;8.93;;;9.50;1.00;;;;;;5025380;28;21091;-75
2023/10/07 04:45:16;;;;;;;16.00;8.20;;;9.40;1.00;;;;;;5033789;28;20803;-76
2023/10/07 04:50:15;;;;;;;61.60;27.50;;;9.30;1.00;;;;;;5038361;28;20430;-74
2023/10/07 04:52:42;;;;;;;238.80;84.07;;;9.20;1.00;;;;;;5031420;28;20455;-73
2023/10/07 04:55:13;;;;;;;93.87;39.10;;;9.20;1.00;;;;;;5035862;28;20590;-73
2023/10/07 04:57:44;;;;;;;85.83;35.30;;;9.20;1.00;;;;;;5039580;28;20434;-77
2023/10/07 05:00:27;;;;;;;76.93;35.47;;;9.20;1.00;;;;;;5030932;28;20468;-75
2023/10/07 05:02:57;;;;;;;55.73;27.27;;;9.20;1.00;;;;;;5033534;28;20527;-75
2023/10/07 05:05:24;;;;;;;31.70;17.80;;;9.20;1.00;;;;;;5031211;28;20454;-77
2023/10/07 05:07:50;;;;;;;28.40;14.33;;;9.20;1.00;;;;;;5031527;28;20953;-75
2023/10/07 05:10:20;;;;;;;23.80;12.43;;;9.20;1.00;;;;;;5030025;28;20440;-76
2023/10/07 05:12:46;;;;;;;19.40;11.00;;;9.20;1.00;;;;;;5033698;28;20200;-74
2023/10/07 05:15:13;;;;;;;22.50;10.13;;;9.20;1.00;;;;;;5027483;28;20512;-75
2023/10/07 05:17:39;;;;;;;24.67;11.80;;;9.20;1.00;;;;;;5034632;28;20228;-76
2023/10/07 05:20:26;;;;;;;21.40;10.03;;;9.20;1.00;;;;;;5029670;28;20468;-75
2023/10/07 05:22:51;;;;;;;15.70;8.77;;;9.20;1.00;;;;;;5029680;28;20252;-76
2023/10/07 05:25:17;;;;;;;17.53;9.40;;;9.70;1.00;;;;;;5032893;28;20952;-74
2023/10/07 05:27:44;;;;;;;17.60;8.80;;;9.10;1.00;;;;;;5028921;28;20447;-79
2023/10/07 05:30:12;;;;;;;13.87;8.50;;;9.10;1.00;;;;;;5030963;28;20189;-76
2023/10/07 05:32:39;;;;;;;16.27;9.03;;;9.10;1.00;;;;;;5037327;28;20447;-75
2023/10/07 05:35:05;;;;;;;19.27;9.07;;;9.20;1.00;;;;;;5028319;28;20472;-74
2023/10/07 05:37:30;;;;;;;14.67;8.50;;;9.20;1.00;;;;;;5020985;28;20440;-75
2023/10/07 05:39:56;;;;;;;19.33;10.90;;;9.20;1.00;;;;;;5029965;28;21005;-75
2023/10/07 05:42:22;;;;;;;19.80;10.47;;;9.30;1.00;;;;;;5030424;28;20244;-76
2023/10/07 05:44:48;;;;;;;21.00;11.00;;;9.30;1.00;;;;;;5032809;28;20170;-77
2023/10/07 05:47:14;;;;;;;16.90;9.70;;;9.30;1.00;;;;;;5027598;28;20186;-76
2023/10/07 05:49:41;;;;;;;22.20;11.23;;;9.30;1.00;;;;;;5030964;28;20440;-76
2023/10/07 05:52:06;;;;;;;24.93;9.43;;;9.40;1.00;;;;;;5030809;28;20213;-75
2023/10/07 05:54:32;;;;;;;20.90;8.90;;;9.50;1.00;;;;;;5028858;28;20985;-76
2023/10/07 05:56:58;;;;;;;17.47;9.77;;;9.70;1.00;;;;;;5032006;28;20181;-76
2023/10/07 05:59:24;;;;;;;16.00;8.70;;;9.70;1.00;;;;;;5026809;28;20281;-76
2023/10/07 06:01:50;;;;;;;18.93;8.80;;;9.80;1.00;;;;;;5023979;28;20452;-75
2023/10/07 06:04:15;;;;;;;19.10;9.40;;;10.00;1.00;;;;;;5028899;28;20593;-73
2023/10/07 06:06:44;;;;;;;16.53;8.50;;;10.10;1.00;;;;;;5031046;28;20727;-74
2023/10/07 06:09:16;;;;;;;23.83;8.53;;;10.30;1.00;;;;;;5038583;28;20277;-74
2023/10/07 06:11:42;;;;;;;21.90;10.37;;;10.40;1.00;;;;;;5023537;28;20468;-76
2023/10/07 06:14:08;;;;;;;22.10;9.67;;;10.60;1.00;;;;;;5026659;28;20506;-74
2023/10/07 06:16:33;;;;;;;15.40;9.40;;;10.70;1.00;;;;;;5024365;28;20944;-74
2023/10/07 06:18:59;;;;;;;14.43;7.93;;;10.80;1.00;;;;;;5031253;28;20213;-77
2023/10/07 06:21:27;;;;;;;15.57;8.80;;;11.20;1.00;;;;;;5032260;28;20177;-73
2023/10/07 06:24:00;;;;;;;17.20;8.63;;;11.10;1.00;;;;;;5029714;28;20196;-75
2023/10/07 06:26:25;;;;;;;18.30;9.70;;;11.30;1.00;;;;;;5027021;28;20523;-74
2023/10/07 06:28:51;;;;;;;15.37;7.80;;;11.40;1.00;;;;;;5026722;28;20492;-73
2023/10/07 06:31:22;;;;;;;14.70;7.97;;;11.40;1.00;;;;;;5027305;28;20190;-74
2023/10/07 06:34:09;;;;;;;14.40;8.10;;;11.30;1.00;;;;;;5022429;28;20178;-75
2023/10/07 06:36:37;;;;;;;17.20;7.50;;;11.40;1.00;;;;;;5030105;28;20432;-75
2023/10/07 06:39:05;;;;;;;15.70;7.70;;;11.40;1.00;;;;;;5035379;28;20462;-75
2023/10/07 06:41:34;;;;;;;13.60;7.30;;;11.50;1.00;;;;;;5028415;28;20474;-75
2023/10/07 06:43:59;;;;;;;14.03;6.97;;;11.40;1.00;;;;;;5029785;28;20982;-77
2023/10/07 06:46:40;;;;;;;14.17;7.80;;;11.60;1.00;;;;;;5028857;28;20436;-75
2023/10/07 06:49:16;;;;;;;15.10;8.43;;;11.70;1.00;;;;;;5023375;28;20197;-75
2023/10/07 06:51:43;;;;;;;15.07;8.30;;;11.80;1.00;;;;;;5025949;28;20454;-74
2023/10/07 06:54:09;;;;;;;15.77;8.00;;;11.90;1.00;;;;;;5021404;28;20859;-76
2023/10/07 06:56:35;;;;;;;13.23;7.57;;;11.90;1.00;;;;;;5025552;28;20432;-77
2023/10/07 06:59:00;;;;;;;13.93;7.47;;;12.00;1.00;;;;;;5027127;28;20468;-76
2023/10/07 07:01:51;;;;;;;19.83;7.73;;;12.10;1.00;;;;;;5025911;28;20183;-74
2023/10/07 07:04:19;;;;;;;14.93;7.70;;;12.00;1.00;;;;;;5024892;28;20180;-74
2023/10/07 07:06:57;;;;;;;15.20;7.97;;;12.10;1.00;;;;;;5022581;28;20432;-76
2023/10/07 07:12:22;;;;;;;19.13;7.73;;;12.10;1.00;;;;;;5023114;28;20463;-75
2023/10/07 07:15:04;;;;;;;13.13;7.50;;;12.30;1.00;;;;;;5022542;28;20483;-75
2023/10/07 07:17:30;;;;;;;11.87;6.67;;;12.30;1.00;;;;;;5029656;28;20481;-75
2023/10/07 07:22:37;;;;;;;13.37;7.50;;;12.70;1.00;;;;;;5028771;28;20459;-75
2023/10/07 07:25:10;;;;;;;13.27;7.30;;;13.00;1.00;;;;;;5015751;28;20473;-75
2023/10/07 07:27:37;;;;;;;17.00;7.40;;;13.20;1.00;;;;;;5013069;28;20801;-75
2023/10/07 07:30:17;;;;;;;16.90;7.80;;;13.30;1.00;;;;;;5020906;28;21005;-74
2023/10/07 07:32:44;;;;;;;15.70;7.87;;;13.40;1.00;;;;;;5024609;28;20492;-74
2023/10/07 07:35:10;;;;;;;12.77;7.67;;;13.70;1.00;;;;;;5021881;28;20497;-75
2023/10/07 07:37:36;;;;;;;14.60;7.10;;;13.60;1.00;;;;;;5026704;28;20424;-73
2023/10/07 07:40:09;;;;;;;13.20;7.50;;;13.60;1.00;;;;;;5030976;28;20456;-75
2023/10/07 07:42:35;;;;;;;14.53;7.30;;;13.60;1.00;;;;;;5029791;28;20204;-74
2023/10/07 07:45:01;;;;;;;13.97;7.80;;;13.60;1.00;;;;;;5044581;28;20507;-75
2023/10/07 07:47:33;;;;;;;15.10;7.50;;;13.60;1.00;;;;;;5020482;28;20179;-74
2023/10/07 07:50:02;;;;;;;12.17;6.80;;;13.50;1.00;;;;;;5045305;28;20487;-75
2023/10/07 07:52:27;;;;;;;14.33;7.43;;;13.50;1.00;;;;;;5032919;28;20460;-74
2023/10/07 07:54:54;;;;;;;15.40;7.20;;;13.50;1.00;;;;;;5031345;28;20515;-74
2023/10/07 07:57:22;;;;;;;11.73;7.00;;;13.70;1.00;;;;;;5030482;28;20189;-76
2023/10/07 07:59:48;;;;;;;14.17;7.40;;;14.00;1.00;;;;;;5025829;28;20535;-75
2023/10/07 08:02:16;;;;;;;13.23;7.00;;;14.50;1.00;;;;;;5024631;28;20964;-75
2023/10/07 08:04:46;;;;;;;14.23;7.30;;;14.50;1.00;;;;;;5033191;28;20846;-76
2023/10/07 08:07:27;;;;;;;15.65;7.20;;;14.80;1.00;;;;;;5028709;28;20453;-72
2023/10/07 08:10:03;;;;;;;11.30;6.50;;;15.00;1.00;;;;;;5021315;28;20184;-72
2023/10/07 08:12:35;;;;;;;11.73;6.80;;;15.20;1.00;;;;;;5027920;28;20448;-72
2023/10/07 08:17:40;;;;;;;12.90;7.03;;;15.40;1.00;;;;;;5029642;28;20519;-73
2023/10/07 08:20:10;;;;;;;13.83;6.67;;;15.50;1.00;;;;;;5027516;28;20545;-76
2023/10/07 08:22:45;;;;;;;12.70;6.50;;;15.70;1.00;;;;;;5029553;28;20502;-72
2023/10/07 08:26:08;;;;;;;12.83;6.53;;;16.00;1.00;;;;;;5024034;28;20511;-73
2023/10/07 08:28:17;;;;;;;19.17;7.27;;;16.30;1.00;;;;;;5017151;28;21047;-73
2023/10/07 08:30:46;;;;;;;13.87;7.00;;;16.40;1.00;;;;;;5025697;28;20424;-72
2023/10/07 08:33:15;;;;;;;12.00;6.90;;;16.40;1.00;;;;;;5014085;28;20526;-72
2023/10/07 08:35:47;;;;;;;12.73;6.30;;;16.30;1.00;;;;;;5025768;28;20435;-74
2023/10/07 08:38:21;;;;;;;15.60;7.30;;;16.20;1.00;;;;;;5026001;28;20472;-73
2023/10/07 08:41:07;;;;;;;14.40;7.00;;;16.10;1.00;;;;;;5027957;28;20452;-73
2023/10/07 08:44:02;;;;;;;10.30;6.40;;;16.00;1.00;;;;;;5022888;28;20444;-72
2023/10/07 08:46:28;;;;;;;12.47;6.80;;;16.10;1.00;;;;;;5022908;28;20429;-73
2023/10/07 08:49:04;;;;;;;14.87;7.40;;;16.20;1.00;;;;;;5024068;28;20460;-73
2023/10/07 08:51:33;;;;;;;14.23;7.13;;;16.50;1.00;;;;;;5031262;28;20428;-74
2023/10/07 08:54:07;;;;;;;11.87;6.70;;;16.50;1.00;;;;;;5027170;28;20816;-73
2023/10/07 08:56:37;;;;;;;13.10;6.67;;;16.60;1.00;;;;;;5037696;28;20454;-73
2023/10/07 08:59:07;;;;;;;11.30;6.10;;;16.70;1.00;;;;;;5025793;28;20452;-76
2023/10/07 09:01:35;;;;;;;12.03;6.50;;;16.50;1.00;;;;;;5025602;28;20486;-74
2023/10/07 09:04:06;;;;;;;9.27;6.17;;;16.50;1.00;;;;;;5025138;28;20447;-76
2023/10/07 09:06:33;;;;;;;9.90;6.23;;;16.50;1.00;;;;;;5025355;28;20431;-71
2023/10/07 09:09:06;;;;;;;10.20;6.27;;;16.60;1.00;;;;;;5027645;28;20519;-75
2023/10/07 09:11:36;;;;;;;15.70;6.83;;;17.00;1.00;;;;;;5033994;28;20422;-73
2023/10/07 09:14:06;;;;;;;11.63;5.60;;;17.00;1.00;;;;;;5023110;28;20954;-73
2023/10/07 09:16:32;;;;;;;16.17;8.20;;;17.20;1.00;;;;;;5021751;28;20443;-74
2023/10/07 09:18:59;;;;;;;11.90;6.43;;;17.40;1.00;;;;;;5020181;28;20514;-72
2023/10/07 09:21:33;;;;;;;17.43;7.90;;;18.00;1.00;;;;;;5032016;28;20428;-73
2023/10/07 09:24:03;;;;;;;10.97;6.13;;;18.00;1.00;;;;;;5026257;28;20499;-74
2023/10/07 09:26:36;;;;;;;11.60;6.60;;;18.40;1.00;;;;;;5027681;28;20432;-73
2023/10/07 09:29:15;;;;;;;17.30;9.70;;;18.60;1.00;;;;;;5027229;28;20459;-68
2023/10/07 09:31:50;;;;;;;31.53;13.43;;;19.10;1.00;;;;;;5030827;28;20423;-70
2023/10/07 09:34:30;;;;;;;12.70;6.90;;;19.20;1.00;;;;;;5026573;28;20428;-74
2023/10/07 09:36:57;;;;;;;11.00;6.60;;;20.60;1.00;;;;;;5026660;28;20450;-74
2023/10/07 09:39:34;;;;;;;12.33;6.87;;;19.00;1.00;;;;;;5031642;28;20467;-73
2023/10/07 09:42:04;;;;;;;11.83;6.40;;;18.80;1.00;;;;;;5031984;28;20474;-74
2023/10/07 09:44:31;;;;;;;12.03;6.53;;;18.90;1.00;;;;;;5035304;28;20854;-72
2023/10/07 09:47:03;;;;;;;12.00;6.50;;;19.20;1.00;;;;;;5032453;28;20435;-74
2023/10/07 09:49:30;;;;;;;10.13;6.17;;;20.00;1.00;;;;;;5029022;28;20946;-75
2023/10/07 09:52:16;;;;;;;9.83;6.23;;;21.00;1.00;;;;;;5027028;28;20452;-75
2023/10/07 09:55:21;;;;;;;10.70;5.90;;;21.70;1.00;;;;;;5025795;28;20830;-76
2023/10/07 09:58:01;;;;;;;8.90;5.90;;;21.80;1.00;;;;;;5026640;28;20431;-74
2023/10/07 10:00:44;;;;;;;16.10;7.30;;;21.40;1.00;;;;;;5024008;28;20463;-76
2023/10/07 10:03:20;;;;;;;12.43;6.50;;;22.00;1.00;;;;;;5023116;28;20446;-76
2023/10/07 10:06:16;;;;;;;11.77;6.80;;;23.10;1.00;;;;;;5030259;28;20420;-75
2023/10/07 10:08:58;;;;;;;12.27;6.60;;;23.60;1.00;;;;;;5031243;28;20408;-76
2023/10/07 10:11:30;;;;;;;9.33;5.80;;;23.50;1.00;;;;;;5028348;28;20419;-74
2023/10/07 10:16:48;;;;;;;10.30;5.50;;;23.20;1.00;;;;;;5028117;28;20432;-76
2023/10/07 10:19:29;;;;;;;13.17;6.13;;;22.30;1.00;;;;;;5030074;28;20459;-75
2023/10/07 10:21:55;;;;;;;10.00;5.90;;;21.90;1.00;;;;;;5025729;28;20454;-75
2023/10/07 10:24:28;;;;;;;9.97;5.30;;;21.90;1.00;;;;;;5031831;28;20412;-75
2023/10/07 10:27:12;;;;;;;9.93;5.13;;;21.80;1.00;;;;;;5031341;28;20408;-74
2023/10/07 10:29:52;;;;;;;10.40;5.13;;;21.30;1.00;;;;;;5031888;28;20440;-77
2023/10/07 10:32:28;;;;;;;8.90;5.33;;;21.10;1.00;;;;;;5025565;28;20503;-74
2023/10/07 10:34:54;;;;;;;11.83;5.10;;;21.00;1.00;;;;;;5031311;28;20422;-75
2023/10/07 10:37:23;;;;;;;9.30;5.93;;;20.70;1.00;;;;;;5031441;28;20498;-74
2023/10/07 10:39:49;;;;;;;12.53;5.97;;;20.20;1.00;;;;;;5031307;28;20460;-75
2023/10/07 10:42:15;;;;;;;9.83;5.03;;;20.20;1.00;;;;;;5031127;28;20611;-74
2023/10/07 10:44:46;;;;;;;11.70;5.20;;;20.10;1.00;;;;;;5031348;28;20261;-76
2023/10/07 10:47:18;;;;;;;11.27;5.70;;;20.00;1.00;;;;;;5031435;28;20180;-74
2023/10/07 10:49:44;;;;;;;9.17;4.80;;;20.10;1.00;;;;;;5031265;28;20506;-75
2023/10/07 10:52:11;;;;;;;9.00;4.63;;;20.10;1.00;;;;;;5031380;28;20436;-75
2023/10/07 10:54:39;;;;;;;8.10;4.73;;;20.10;1.00;;;;;;5031324;28;20432;-74
2023/10/07 10:57:07;;;;;;;9.33;5.10;;;20.00;1.00;;;;;;5031052;28;20423;-74
2023/10/07 10:59:43;;;;;;;7.83;4.70;;;19.90;1.00;;;;;;5031105;28;20463;-74
2023/10/07 11:02:17;;;;;;;9.03;5.63;;;20.10;1.00;;;;;;5038486;28;20428;-75
2023/10/07 11:04:45;;;;;;;8.57;5.00;;;20.30;1.00;;;;;;5030750;28;21088;-74
2023/10/07 11:07:11;;;;;;;11.23;5.00;;;20.50;1.00;;;;;;5031088;28;20756;-75
2023/10/07 11:09:38;;;;;;;11.60;5.30;;;20.60;1.00;;;;;;5030845;28;20506;-74
2023/10/07 11:12:16;;;;;;;13.43;4.80;;;20.50;1.00;;;;;;5033584;28;21060;-75
2023/10/07 11:14:43;;;;;;;10.10;4.90;;;20.50;1.00;;;;;;5031150;28;20522;-75
2023/10/07 11:17:09;;;;;;;11.40;5.07;;;20.40;1.00;;;;;;5030999;28;20412;-74
2023/10/07 11:19:48;;;;;;;8.50;4.60;;;20.40;1.00;;;;;;5030641;28;20568;-75
2023/10/07 11:22:18;;;;;;;8.63;4.70;;;20.30;1.00;;;;;;5030416;28;20523;-75
2023/10/07 11:24:46;;;;;;;7.73;4.30;;;20.40;1.00;;;;;;5031025;28;20424;-75
2023/10/07 11:27:12;;;;;;;10.20;4.80;;;20.40;1.00;;;;;;5022872;28;20493;-74
2023/10/07 11:29:38;;;;;;;14.73;5.10;;;20.50;1.00;;;;;;5030493;28;20463;-74
2023/10/07 11:32:08;;;;;;;11.17;4.50;;;20.40;1.00;;;;;;5030302;28;20503;-74
2023/10/07 11:34:36;;;;;;;8.83;5.60;;;20.50;1.00;;;;;;5030626;28;20185;-74
2023/10/07 11:37:10;;;;;;;8.67;4.40;;;20.60;1.00;;;;;;5030572;28;20420;-75
2023/10/07 11:39:43;;;;;;;11.60;5.73;;;20.80;1.00;;;;;;5030284;28;20452;-75
2023/10/07 11:42:11;;;;;;;10.83;4.60;;;21.00;1.00;;;;;;5030540;28;20554;-75
2023/10/07 11:44:38;;;;;;;9.90;5.03;;;21.10;1.00;;;;;;5030461;28;20419;-75
2023/10/07 11:47:04;;;;;;;7.90;4.87;;;21.10;1.00;;;;;;5030207;28;20456;-74
2023/10/07 11:49:31;;;;;;;10.30;5.47;;;20.90;1.00;;;;;;5029969;28;20517;-74
2023/10/07 11:51:56;;;;;;;9.53;4.50;;;20.80;1.00;;;;;;5030102;28;20439;-75
2023/10/07 11:54:24;;;;;;;11.30;4.93;;;20.80;1.00;;;;;;5029755;28;20866;-77
2023/10/07 11:56:50;;;;;;;8.43;4.20;;;21.00;1.00;;;;;;5030516;28;20280;-74
2023/10/07 11:59:15;;;;;;;9.00;4.63;;;21.10;1.00;;;;;;5030138;28;20467;-73
2023/10/07 12:01:41;;;;;;;13.77;5.47;;;21.40;1.00;;;;;;5030525;28;20658;-76
2023/10/07 12:04:08;;;;;;;10.60;5.17;;;21.40;1.00;;;;;;5030101;28;20185;-74
2023/10/07 12:06:33;;;;;;;10.37;5.33;;;21.40;1.00;;;;;;5030548;28;20429;-75
2023/10/07 12:09:06;;;;;;;8.90;4.40;;;21.40;1.00;;;;;;5030367;28;20838;-77
2023/10/07 12:11:32;;;;;;;12.43;5.90;;;21.70;1.00;;;;;;5029938;28;20664;-74
2023/10/07 12:13:57;;;;;;;11.33;5.17;;;21.90;1.00;;;;;;5030636;28;20419;-77
2023/10/07 12:16:23;;;;;;;9.20;4.83;;;21.80;1.00;;;;;;5029890;28;20200;-74
2023/10/07 12:18:48;;;;;;;10.37;4.90;;;22.70;1.00;;;;;;5025576;28;20174;-72
2023/10/07 12:21:14;;;;;;;12.27;6.87;;;24.70;1.00;;;;;;5024111;28;20639;-75
2023/10/07 12:23:43;;;;;;;9.40;5.53;;;26.20;1.00;;;;;;5029947;28;20197;-75
2023/10/07 12:26:16;;;;;;;10.20;6.03;;;27.30;1.00;;;;;;5023445;28;20178;-74
2023/10/07 12:28:42;;;;;;;10.07;6.50;;;26.50;1.00;;;;;;5024732;28;20470;-75
2023/10/07 12:31:14;;;;;;;11.27;5.10;;;26.50;1.00;;;;;;5032495;28;20807;-74
2023/10/07 12:33:40;;;;;;;9.70;4.90;;;26.80;1.00;;;;;;5018706;28;20979;-74
2023/10/07 12:36:15;;;;;;;10.13;5.20;;;26.80;1.00;;;;;;5024154;28;20816;-73
2023/10/07 12:38:41;;;;;;;7.27;4.30;;;26.70;1.00;;;;;;5022529;28;20211;-73
2023/10/07 12:41:08;;;;;;;10.27;4.90;;;27.70;1.00;;;;;;5020138;28;20200;-74
2023/10/07 12:43:34;;;;;;;9.37;5.30;;;29.60;1.00;;;;;;5019372;28;20712;-73
2023/10/07 12:46:00;;;;;;;9.50;4.80;;;29.70;1.00;;;;;;5021488;28;20173;-73
2023/10/07 12:48:27;;;;;;;13.60;5.28;;;29.70;1.00;;;;;;5019389;28;20256;-73
2023/10/07 12:50:53;;;;;;;7.60;5.20;;;29.00;1.00;;;;;;5022740;28;20189;-75
2023/10/07 12:53:18;;;;;;;17.77;5.70;;;27.90;1.00;;;;;;5029832;28;20197;-74
2023/10/07 12:55:44;;;;;;;7.30;4.47;;;28.50;1.00;;;;;;5026960;28;20235;-73
2023/10/07 12:58:15;;;;;;;7.30;4.23;;;26.70;1.00;;;;;;5027858;28;20227;-75
2023/10/07 13:00:42;;;;;;;10.53;4.80;;;25.70;1.00;;;;;;5019682;28;20193;-73
2023/10/07 13:03:08;;;;;;;9.20;4.63;;;25.80;1.00;;;;;;5027433;28;20539;-74
2023/10/07 13:05:37;;;;;;;9.40;4.67;;;26.80;1.00;;;;;;5023936;28;20169;-73
2023/10/07 13:08:12;;;;;;;10.57;4.77;;;27.70;1.00;;;;;;5033624;28;20569;-73
2023/10/07 13:10:38;;;;;;;11.77;4.93;;;28.30;1.00;;;;;;5025984;28;20192;-73
2023/10/07 13:13:04;;;;;;;10.30;4.93;;;28.20;1.00;;;;;;5030646;28;20201;-74
2023/10/07 13:15:34;;;;;;;10.73;5.47;;;28.20;1.00;;;;;;5032480;28;20238;-75
2023/10/07 13:18:03;;;;;;;9.65;5.07;;;29.30;1.00;;;;;;5028188;28;20181;-75
2023/10/07 13:20:30;;;;;;;8.80;4.60;;;30.00;1.00;;;;;;5030485;28;20292;-75
2023/10/07 13:23:06;;;;;;;8.60;4.70;;;30.30;1.00;;;;;;5032117;28;20698;-75
2023/10/07 13:25:33;;;;;;;10.15;4.65;;;31.10;1.00;;;;;;5029704;28;20177;-75
2023/10/07 13:28:00;;;;;;;17.95;4.90;;;31.40;1.00;;;;;;5037012;28;20246;-74
2023/10/07 13:30:26;;;;;;;8.73;5.15;;;30.80;1.00;;;;;;5021418;28;20182;-74
2023/10/07 13:32:54;;;;;;;8.20;4.20;;;30.40;1.00;;;;;;5023750;28;20202;-74
2023/10/07 13:35:20;;;;;;;9.95;5.18;;;29.40;1.00;;;;;;5029365;28;20177;-73
2023/10/07 13:37:52;;;;;;;8.75;4.43;;;28.30;1.00;;;;;;5026079;28;20174;-77
2023/10/07 13:40:19;;;;;;;9.90;4.33;;;27.20;1.00;;;;;;5032619;28;20271;-73
2023/10/07 13:42:47;;;;;;;9.02;4.28;;;27.20;1.00;;;;;;5028104;28;20606;-74
2023/10/07 13:45:21;;;;;;;8.02;4.45;;;27.80;1.00;;;;;;5034240;28;20183;-75
2023/10/07 13:47:48;;;;;;;10.07;4.70;;;28.10;1.00;;;;;;5027431;28;20870;-75
2023/10/07 13:50:15;;;;;;;11.13;5.37;;;27.60;1.00;;;;;;5025187;28;20228;-77
2023/10/07 13:53:40;;;;;;;8.20;4.67;;;27.30;1.00;;;;;;5016493;28;20206;-74